createdAt,value
2022-08-05T00:01:36.534Z,22.42
2022-08-05T00:04:17.805Z,22.58
2022-08-05T00:06:47.041Z,22.62
2022-08-05T00:09:19.571Z,22.10
2022-08-05T00:11:55.744Z,22.04
2022-08-05T00:14:29.180Z,22.10
2022-08-05T00:16:57.970Z,21.89
2022-08-05T00:19:33.646Z,21.98
2022-08-05T00:22:11.267Z,21.93
2022-08-05T00:24:42.336Z,22.08
2022-08-05T00:27:16.751Z,22.56
2022-08-05T00:29:44.998Z,22.53
2022-08-05T00:32:15.427Z,22.54
2022-08-05T00:35:05.780Z,22.69
2022-08-05T00:37:35.428Z,21.84
2022-08-05T00:40:17.965Z,22.38
2022-08-05T00:42:56.218Z,21.47
2022-08-05T00:45:27.992Z,22.14
2022-08-05T00:48:05.617Z,21.55
2022-08-05T00:50:34.185Z,21.74
2022-08-05T00:53:02.276Z,21.65
2022-08-05T00:55:34.057Z,22.11
2022-08-05T00:58:11.288Z,21.23
2022-08-05T01:00:40.722Z,21.62
2022-08-05T01:03:22.222Z,21.79
2022-08-05T01:05:51.479Z,21.53
2022-08-05T01:08:40.930Z,22.30
2022-08-05T01:11:13.762Z,22.31
2022-08-05T01:13:57.866Z,22.25
2022-08-05T01:16:34.973Z,21.59
2022-08-05T01:19:14.278Z,21.39
2022-08-05T01:22:23.896Z,21.93
2022-08-05T01:25:39.933Z,21.89
2022-08-05T01:28:27.919Z,21.03
2022-08-05T01:31:05.926Z,22.06
2022-08-05T01:33:41.198Z,21.46
2022-08-05T01:36:16.176Z,22.10
2022-08-05T01:38:48.616Z,22.16
2022-08-05T01:41:25.576Z,22.27
2022-08-05T01:43:57.027Z,22.35
2022-08-05T01:46:42.560Z,21.70
2022-08-05T01:49:24.780Z,22.03
2022-08-05T01:51:58.663Z,21.37
2022-08-05T01:54:31.642Z,20.62
2022-08-05T01:58:12.153Z,21.04
2022-08-05T01:59:53.878Z,21.35
2022-08-05T02:02:26.046Z,20.81
2022-08-05T02:05:00.381Z,21.37
2022-08-05T02:07:30.487Z,21.51
2022-08-05T02:09:59.028Z,21.61
2022-08-05T02:12:38.544Z,21.29
2022-08-05T02:15:13.877Z,21.41
2022-08-05T02:18:28.274Z,21.42
2022-08-05T02:20:47.644Z,21.00
2022-08-05T02:23:23.698Z,21.05
2022-08-05T02:25:53.510Z,21.03
2022-08-05T02:28:28.874Z,21.75
2022-08-05T02:31:04.121Z,20.99
2022-08-05T02:33:38.783Z,20.86
2022-08-05T02:36:13.590Z,21.04
2022-08-05T02:38:53.680Z,21.42
2022-08-05T02:41:28.834Z,20.96
2022-08-05T02:44:12.473Z,21.31
2022-08-05T02:46:58.540Z,21.19
2022-08-05T02:49:36.723Z,21.12
2022-08-05T02:52:08.836Z,20.52
2022-08-05T02:54:41.265Z,20.67
2022-08-05T02:58:09.247Z,20.71
2022-08-05T03:00:03.472Z,20.94
2022-08-05T03:02:36.567Z,21.08
2022-08-05T03:05:06.315Z,21.13
2022-08-05T03:07:59.413Z,21.16
2022-08-05T03:10:25.169Z,20.89
2022-08-05T03:12:55.083Z,21.49
2022-08-05T03:15:24.304Z,21.55
2022-08-05T03:17:57.695Z,21.42
2022-08-05T03:20:26.686Z,20.79
2022-08-05T03:22:57.533Z,20.91
2022-08-05T03:25:32.659Z,21.17
2022-08-05T03:28:03.995Z,21.12
2022-08-05T03:30:34.338Z,20.51
2022-08-05T03:33:07.236Z,20.02
2022-08-05T03:35:40.865Z,20.33
2022-08-05T03:38:11.915Z,20.97
2022-08-05T03:40:45.228Z,20.25
2022-08-05T03:44:09.366Z,20.98
2022-08-05T03:46:08.325Z,20.97
2022-08-05T03:48:37.921Z,21.09
2022-08-05T03:52:49.352Z,21.17
2022-08-05T03:55:52.639Z,21.11
2022-08-05T03:56:58.898Z,20.36
2022-08-05T03:59:54.311Z,20.70
2022-08-05T04:02:38.456Z,20.63
2022-08-05T04:05:11.201Z,20.19
2022-08-05T04:07:58.104Z,20.21
2022-08-05T04:10:28.437Z,19.54
2022-08-05T04:13:00.428Z,19.98
2022-08-05T04:15:33.362Z,20.49
2022-08-05T04:18:07.421Z,20.26
2022-08-05T04:20:41.176Z,20.33
2022-08-05T04:23:12.330Z,19.71
2022-08-05T04:25:57.478Z,19.75
2022-08-05T04:28:30.993Z,20.10
2022-08-05T04:31:00.990Z,19.65
2022-08-05T04:34:17.953Z,19.40
2022-08-05T04:36:44.648Z,20.33
2022-08-05T04:39:08.389Z,20.27
2022-08-05T04:41:37.301Z,19.86
2022-08-05T04:44:08.933Z,20.54
2022-08-05T04:46:38.787Z,19.97
2022-08-05T04:49:12.157Z,20.23
2022-08-05T04:51:44.655Z,20.38
2022-08-05T04:54:14.684Z,20.70
2022-08-05T04:56:43.537Z,20.52
2022-08-05T04:59:13.993Z,20.89
2022-08-05T05:02:07.981Z,21.13
2022-08-05T05:04:47.768Z,20.30
2022-08-05T05:07:17.448Z,20.71
2022-08-05T05:09:46.128Z,20.30
2022-08-05T05:12:14.984Z,20.74
2022-08-05T05:14:49.375Z,20.99
2022-08-05T05:17:23.683Z,20.92
2022-08-05T05:19:56.663Z,21.01
2022-08-05T05:22:26.992Z,21.20
2022-08-05T05:24:56.852Z,21.44
2022-08-05T05:27:41.600Z,21.22
2022-08-05T05:30:28.893Z,21.77
2022-08-05T05:33:09.069Z,21.90
2022-08-05T05:35:44.719Z,21.78
2022-08-05T05:38:14.962Z,22.19
2022-08-05T05:40:51.851Z,21.61
2022-08-05T05:43:27.863Z,21.97
2022-08-05T05:46:15.659Z,22.44
2022-08-05T05:48:45.951Z,22.58
2022-08-05T05:51:20.001Z,22.94
2022-08-05T05:53:58.234Z,22.48
2022-08-05T05:56:32.765Z,23.08
2022-08-05T05:59:05.676Z,23.59
2022-08-05T06:01:37.783Z,22.86
2022-08-05T06:04:08.171Z,23.84
2022-08-05T06:06:36.686Z,23.79
2022-08-05T06:09:07.665Z,23.24
2022-08-05T06:11:39.227Z,23.09
2022-08-05T06:14:07.462Z,22.85
2022-08-05T06:16:36.841Z,22.95
2022-08-05T06:19:07.452Z,23.66
2022-08-05T06:21:38.687Z,23.51
2022-08-05T06:24:12.775Z,23.63
2022-08-05T06:26:51.277Z,23.71
2022-08-05T06:29:24.681Z,23.41
2022-08-05T06:32:25.531Z,23.81
2022-08-05T06:34:57.801Z,23.05
2022-08-05T06:37:56.202Z,24.23
2022-08-05T06:40:20.879Z,24.22
2022-08-05T06:42:52.126Z,24.46
2022-08-05T06:45:44.705Z,24.14
2022-08-05T06:48:47.304Z,25.00
2022-08-05T06:51:00.166Z,24.73
2022-08-05T06:53:29.306Z,25.11
2022-08-05T06:56:00.280Z,24.93
2022-08-05T06:58:36.081Z,24.88
2022-08-05T07:01:06.878Z,24.82
2022-08-05T07:03:36.247Z,25.18
2022-08-05T07:06:05.766Z,25.00
2022-08-05T07:08:47.783Z,25.25
2022-08-05T07:11:22.360Z,25.25
2022-08-05T07:14:20.116Z,25.46
2022-08-05T07:17:58.595Z,25.44
2022-08-05T07:22:37.401Z,25.69
2022-08-05T07:25:54.251Z,25.65
2022-08-05T07:28:02.338Z,25.55
2022-08-05T07:30:38.877Z,25.87
2022-08-05T07:33:09.886Z,25.75
2022-08-05T07:36:01.994Z,26.04
2022-08-05T07:38:33.357Z,26.26
2022-08-05T07:41:35.215Z,26.25
2022-08-05T07:43:55.135Z,26.38
2022-08-05T07:46:26.408Z,26.42
2022-08-05T07:49:02.476Z,26.31
2022-08-05T07:51:40.679Z,26.60
2022-08-05T07:54:18.854Z,26.40
2022-08-05T07:57:14.772Z,26.63
2022-08-05T07:59:39.962Z,26.82
2022-08-05T08:02:15.291Z,26.99
2022-08-05T08:04:46.923Z,26.99
2022-08-05T08:07:15.567Z,26.98
2022-08-05T08:09:44.036Z,26.98
2022-08-05T08:12:33.627Z,27.15
2022-08-05T08:15:04.411Z,26.94
2022-08-05T08:17:33.241Z,27.12
2022-08-05T08:20:23.440Z,27.30
2022-08-05T08:22:55.819Z,27.63
2022-08-05T08:25:26.499Z,27.79
2022-08-05T08:27:55.232Z,27.73
2022-08-05T08:30:32.549Z,27.81
2022-08-05T08:33:09.150Z,28.07
2022-08-05T08:35:53.896Z,28.04
2022-08-05T08:38:36.083Z,28.36
2022-08-05T08:41:08.273Z,28.38
2022-08-05T08:45:17.714Z,28.32
2022-08-05T08:46:30.514Z,28.26
2022-08-05T08:49:08.320Z,28.15
2022-08-05T08:52:03.049Z,28.41
2022-08-05T08:54:36.210Z,28.47
2022-08-05T08:57:11.331Z,28.25
2022-08-05T08:59:41.857Z,28.69
2022-08-05T09:02:19.094Z,29.06
2022-08-05T09:05:16.857Z,28.60
2022-08-05T09:07:56.017Z,29.43
2022-08-05T09:10:26.982Z,29.24
2022-08-05T09:12:56.911Z,29.50
2022-08-05T09:15:32.656Z,29.69
2022-08-05T09:18:08.946Z,29.85
2022-08-05T09:20:38.047Z,30.03
2022-08-05T09:23:18.562Z,30.06
2022-08-05T09:26:02.468Z,30.18
2022-08-05T09:28:34.033Z,30.23
2022-08-05T09:31:23.530Z,30.37
2022-08-05T09:33:59.041Z,30.54
2022-08-05T09:36:55.350Z,30.20
2022-08-05T09:39:39.563Z,30.12
2022-08-05T09:42:23.335Z,30.58
2022-08-05T09:44:56.763Z,30.25
2022-08-05T09:47:48.335Z,30.82
2022-08-05T09:50:38.670Z,30.80
2022-08-05T09:53:12.024Z,30.97
2022-08-05T09:56:04.947Z,31.19
2022-08-05T09:58:41.855Z,31.27
2022-08-05T10:01:14.944Z,31.44
2022-08-05T10:03:59.338Z,30.69
2022-08-05T10:06:31.098Z,31.10
2022-08-05T10:09:24.947Z,31.12
2022-08-05T10:11:55.443Z,30.56
2022-08-05T10:14:26.709Z,31.15
2022-08-05T10:16:57.192Z,31.40
2022-08-05T10:19:31.860Z,31.01
2022-08-05T10:22:29.921Z,31.65
2022-08-05T10:24:59.063Z,30.99
2022-08-05T10:28:09.255Z,31.39
2022-08-05T10:31:20.988Z,31.11
2022-08-05T10:33:14.705Z,31.35
2022-08-05T10:35:44.283Z,31.13
2022-08-05T10:38:14.894Z,30.86
2022-08-05T10:40:57.825Z,31.08
2022-08-05T10:43:36.778Z,30.83
2022-08-05T10:46:09.480Z,31.39
2022-08-05T10:48:56.445Z,31.22
2022-08-05T10:51:29.003Z,30.99
2022-08-05T10:54:05.642Z,31.26
2022-08-05T10:56:52.880Z,31.50
2022-08-05T11:00:03.436Z,31.68
2022-08-05T11:02:37.508Z,31.86
2022-08-05T11:05:07.026Z,31.78
2022-08-05T11:08:03.126Z,31.56
2022-08-05T11:10:27.538Z,32.14
2022-08-05T11:12:56.588Z,32.12
2022-08-05T11:16:00.824Z,32.00
2022-08-05T11:18:30.080Z,32.25
2022-08-05T11:21:02.173Z,32.02
2022-08-05T11:24:03.031Z,32.17
2022-08-05T11:26:32.099Z,31.93
2022-08-05T11:29:11.489Z,32.26
2022-08-05T11:31:54.460Z,31.89
2022-08-05T11:34:38.794Z,31.52
2022-08-05T11:38:29.210Z,31.70
2022-08-05T11:40:02.898Z,32.01
2022-08-05T11:42:37.762Z,31.85
2022-08-05T11:45:23.229Z,31.60
2022-08-05T11:47:58.643Z,32.01
2022-08-05T11:50:27.783Z,32.03
2022-08-05T11:52:58.451Z,32.53
2022-08-05T11:55:32.121Z,32.80
2022-08-05T11:58:09.969Z,32.39
2022-08-05T12:00:41.350Z,32.40
2022-08-05T12:03:24.089Z,32.41
2022-08-05T12:06:01.005Z,32.23
2022-08-05T12:08:31.320Z,31.58
2022-08-05T12:11:05.663Z,32.39
2022-08-05T12:13:48.375Z,32.53
2022-08-05T12:16:25.432Z,32.73
2022-08-05T12:18:55.698Z,32.47
2022-08-05T12:21:26.943Z,31.81
2022-08-05T12:24:05.121Z,31.25
2022-08-05T12:26:35.471Z,31.93
2022-08-05T12:29:09.449Z,31.99
2022-08-05T12:31:49.743Z,32.13
2022-08-05T12:34:25.711Z,32.20
2022-08-05T12:36:55.641Z,31.41
2022-08-05T12:39:34.259Z,32.86
2022-08-05T12:42:03.583Z,32.82
2022-08-05T12:44:34.369Z,32.83
2022-08-05T12:47:03.838Z,32.68
2022-08-05T12:50:01.954Z,32.39
2022-08-05T12:52:37.746Z,33.11
2022-08-05T12:55:22.118Z,33.13
2022-08-05T12:58:52.341Z,33.31
2022-08-05T13:02:01.313Z,33.45
2022-08-05T13:03:42.202Z,33.52
2022-08-05T13:06:15.903Z,33.76
2022-08-05T13:08:51.620Z,33.68
2022-08-05T13:11:25.604Z,33.89
2022-08-05T13:14:25.122Z,33.84
2022-08-05T13:17:10.587Z,33.81
2022-08-05T13:19:52.454Z,33.68
2022-08-05T13:22:28.234Z,33.69
2022-08-05T13:25:05.111Z,33.29
2022-08-05T13:27:38.733Z,33.29
2022-08-05T13:30:33.835Z,33.22
2022-08-05T13:33:01.113Z,33.12
2022-08-05T13:35:42.437Z,33.04
2022-08-05T13:38:28.271Z,32.73
2022-08-05T13:40:59.885Z,33.24
2022-08-05T13:43:45.305Z,32.83
2022-08-05T13:46:35.814Z,32.62
2022-08-05T13:49:11.553Z,33.05
2022-08-05T13:51:46.148Z,33.09
2022-08-05T13:54:16.065Z,32.97
2022-08-05T13:56:51.169Z,33.17
2022-08-05T13:59:24.186Z,33.39
2022-08-05T14:01:56.515Z,33.38
2022-08-05T14:05:00.656Z,33.19
2022-08-05T14:08:00.953Z,33.13
2022-08-05T14:10:28.853Z,32.99
2022-08-05T14:12:59.754Z,33.30
2022-08-05T14:16:06.853Z,33.06
2022-08-05T14:18:18.159Z,33.11
2022-08-05T14:20:49.019Z,33.15
2022-08-05T14:23:24.663Z,32.77
2022-08-05T14:25:54.629Z,32.74
2022-08-05T14:28:28.137Z,32.50
2022-08-05T14:30:56.347Z,33.09
2022-08-05T14:33:24.453Z,33.42
2022-08-05T14:35:54.886Z,33.71
2022-08-05T14:38:33.365Z,33.55
2022-08-05T14:41:07.751Z,33.64
2022-08-05T14:43:59.606Z,32.85
2022-08-05T14:46:29.168Z,33.25
2022-08-05T14:49:06.949Z,33.59
2022-08-05T14:51:38.848Z,33.86
2022-08-05T14:54:28.818Z,33.86
2022-08-05T14:56:59.282Z,33.82
2022-08-05T14:59:29.717Z,33.50
2022-08-05T15:02:03.945Z,33.07
2022-08-05T15:04:44.913Z,33.42
2022-08-05T15:08:09.053Z,33.51
2022-08-05T15:10:05.566Z,33.61
2022-08-05T15:12:59.778Z,33.56
2022-08-05T15:15:54.561Z,33.60
2022-08-05T15:18:14.672Z,33.54
2022-08-05T15:20:45.095Z,33.41
2022-08-05T15:23:15.736Z,33.02
2022-08-05T15:25:53.772Z,33.08
2022-08-05T15:28:27.852Z,33.05
2022-08-05T15:30:56.504Z,32.72
2022-08-05T15:34:05.345Z,32.62
2022-08-05T15:36:17.617Z,32.41
2022-08-05T15:40:58.613Z,32.29
2022-08-05T15:41:58.564Z,32.11
2022-08-05T15:44:27.690Z,31.96
2022-08-05T15:46:55.996Z,31.86
2022-08-05T15:49:43.267Z,31.93
2022-08-05T15:52:29.206Z,31.82
2022-08-05T15:55:03.674Z,31.73
2022-08-05T15:57:33.096Z,31.67
2022-08-05T16:00:03.018Z,31.69
2022-08-05T16:02:31.285Z,31.85
2022-08-05T16:04:59.586Z,31.81
2022-08-05T16:07:29.502Z,31.75
2022-08-05T16:09:57.852Z,31.80
2022-08-05T16:12:27.398Z,31.61
2022-08-05T16:14:55.546Z,31.67
2022-08-05T16:17:24.412Z,31.71
2022-08-05T16:20:04.421Z,31.70
2022-08-05T16:22:34.787Z,31.87
2022-08-05T16:25:05.418Z,32.05
2022-08-05T16:28:00.179Z,32.13
2022-08-05T16:30:28.761Z,32.08
2022-08-05T16:32:57.565Z,32.04
2022-08-05T16:35:28.355Z,32.14
2022-08-05T16:38:16.174Z,32.25
2022-08-05T16:40:55.303Z,32.13
2022-08-05T16:43:26.462Z,31.70
2022-08-05T16:46:04.178Z,31.98
2022-08-05T16:48:38.463Z,31.76
2022-08-05T16:51:09.702Z,31.50
2022-08-05T16:54:03.437Z,31.63
2022-08-05T16:56:29.729Z,31.51
2022-08-05T16:59:00.738Z,31.50
2022-08-05T17:01:31.811Z,31.48
2022-08-05T17:04:18.797Z,31.09
2022-08-05T17:06:53.413Z,31.39
2022-08-05T17:09:23.132Z,31.33
2022-08-05T17:11:54.761Z,31.08
2022-08-05T17:14:36.971Z,31.11
2022-08-05T17:17:14.280Z,31.08
2022-08-05T17:19:45.242Z,30.63
2022-08-05T17:22:24.819Z,30.84
2022-08-05T17:24:57.730Z,30.78
2022-08-05T17:27:27.499Z,30.74
2022-08-05T17:30:12.036Z,30.53
2022-08-05T17:32:47.216Z,30.55
2022-08-05T17:35:20.980Z,30.62
2022-08-05T17:37:50.635Z,30.34
2022-08-05T17:40:22.543Z,30.68
2022-08-05T17:42:52.953Z,30.38
2022-08-05T17:45:38.099Z,30.61
2022-08-05T17:48:08.254Z,30.57
2022-08-05T17:50:36.762Z,30.41
2022-08-05T17:53:08.374Z,30.51
2022-08-05T17:55:39.501Z,30.44
2022-08-05T17:58:13.576Z,29.79
2022-08-05T18:00:50.646Z,30.33
2022-08-05T18:03:48.375Z,30.26
2022-08-05T18:06:12.142Z,30.03
2022-08-05T18:08:45.925Z,30.24
2022-08-05T18:11:24.199Z,29.99
2022-08-05T18:14:01.040Z,30.20
2022-08-05T18:16:34.384Z,29.66
2022-08-05T18:19:04.075Z,29.78
2022-08-05T18:22:09.323Z,29.32
2022-08-05T18:24:20.979Z,29.45
2022-08-05T18:26:49.352Z,29.68
2022-08-05T18:29:17.375Z,29.64
2022-08-05T18:32:13.048Z,29.56
2022-08-05T18:34:42.815Z,28.92
2022-08-05T18:37:12.639Z,28.99
2022-08-05T18:40:34.477Z,29.60
2022-08-05T18:42:33.340Z,29.54
2022-08-05T18:45:01.418Z,29.56
2022-08-05T18:47:31.056Z,28.86
2022-08-05T18:50:19.717Z,29.33
2022-08-05T18:52:51.225Z,28.21
2022-08-05T18:55:21.463Z,29.27
2022-08-05T18:57:53.312Z,28.97
2022-08-05T19:00:27.062Z,28.73
2022-08-05T19:03:03.327Z,28.83
2022-08-05T19:06:11.363Z,29.20
2022-08-05T19:08:21.510Z,28.61
2022-08-05T19:10:49.941Z,29.15
2022-08-05T19:13:19.818Z,28.95
2022-08-05T19:15:59.791Z,28.82
2022-08-05T19:18:33.075Z,28.56
2022-08-05T19:21:01.567Z,28.65
2022-08-05T19:24:07.340Z,28.91
2022-08-05T19:26:22.458Z,28.85
2022-08-05T19:28:50.551Z,28.44
2022-08-05T19:31:21.379Z,28.56
2022-08-05T19:33:56.513Z,28.47
2022-08-05T19:36:25.671Z,28.49
2022-08-05T19:39:00.584Z,28.47
2022-08-05T19:42:06.459Z,28.60
2022-08-05T19:44:18.829Z,28.05
2022-08-05T19:46:47.461Z,28.34
2022-08-05T19:49:19.807Z,27.83
2022-08-05T19:52:05.976Z,27.65
2022-08-05T19:54:37.209Z,28.32
2022-08-05T19:57:09.522Z,27.66
2022-08-05T20:00:00.619Z,28.25
2022-08-05T20:02:31.303Z,28.20
2022-08-05T20:05:01.024Z,28.17
2022-08-05T20:07:38.935Z,28.25
2022-08-05T20:10:16.943Z,28.21
2022-08-05T20:12:45.964Z,28.06
2022-08-05T20:15:48.652Z,27.48
2022-08-05T20:18:10.413Z,28.05
2022-08-05T20:21:00.033Z,28.08
2022-08-05T20:23:39.324Z,27.54
2022-08-05T20:26:18.106Z,27.77
2022-08-05T20:28:48.715Z,27.89
2022-08-05T20:31:21.598Z,27.42
2022-08-05T20:33:57.062Z,27.96
2022-08-05T20:36:26.861Z,27.89
2022-08-05T20:38:57.938Z,26.93
2022-08-05T20:41:43.825Z,27.24
2022-08-05T20:44:18.617Z,27.75
2022-08-05T20:46:59.281Z,27.63
2022-08-05T20:49:27.862Z,27.83
2022-08-05T20:51:58.284Z,27.79
2022-08-05T20:54:43.648Z,27.71
2022-08-05T20:57:24.537Z,27.55
2022-08-05T21:00:19.638Z,27.73
2022-08-05T21:02:57.851Z,27.13
2022-08-05T21:05:28.569Z,27.64
2022-08-05T21:08:15.822Z,27.32
2022-08-05T21:10:49.042Z,27.02
2022-08-05T21:13:26.090Z,26.15
2022-08-05T21:15:55.431Z,26.20
2022-08-05T21:18:23.649Z,25.84
2022-08-05T21:20:51.867Z,25.41
2022-08-05T21:23:22.390Z,25.67
2022-08-05T21:25:51.161Z,24.95
2022-08-05T21:28:23.926Z,25.46
2022-08-05T21:30:58.865Z,24.85
2022-08-05T21:33:37.067Z,25.41
2022-08-05T21:36:08.705Z,25.32
2022-08-05T21:38:40.576Z,24.71
2022-08-05T21:41:09.555Z,24.81
2022-08-05T21:43:41.659Z,25.47
2022-08-05T21:46:11.865Z,25.02
2022-08-05T21:48:40.500Z,25.66
2022-08-05T21:52:15.339Z,25.55
2022-08-05T21:54:03.614Z,24.70
2022-08-05T21:56:32.134Z,24.95
2022-08-05T21:59:01.438Z,24.27
2022-08-05T22:01:36.245Z,25.00
2022-08-05T22:04:04.592Z,25.28
2022-08-05T22:06:35.078Z,25.36
2022-08-05T22:09:15.102Z,25.34
2022-08-05T22:11:49.024Z,25.45
2022-08-05T22:14:33.349Z,25.53
2022-08-05T22:17:03.970Z,25.52
2022-08-05T22:20:01.791Z,25.40
2022-08-05T22:22:27.577Z,25.09
2022-08-05T22:25:21.247Z,24.87
2022-08-05T22:28:08.706Z,24.69
2022-08-05T22:30:55.459Z,24.64
2022-08-05T22:33:58.464Z,24.87
2022-08-05T22:36:14.733Z,24.69
2022-08-05T22:38:48.588Z,24.81
2022-08-05T22:42:04.820Z,24.73
2022-08-05T22:44:08.337Z,24.43
2022-08-05T22:46:39.393Z,24.66
2022-08-05T22:49:12.065Z,24.76
2022-08-05T22:52:07.645Z,24.79
2022-08-05T22:54:28.454Z,24.92
2022-08-05T22:56:58.158Z,24.82
2022-08-05T22:59:45.247Z,25.06
2022-08-05T23:02:16.918Z,24.83
2022-08-05T23:04:52.306Z,24.82
2022-08-05T23:07:23.150Z,24.68
2022-08-05T23:09:57.494Z,24.43
2022-08-05T23:12:32.875Z,25.13
2022-08-05T23:15:03.195Z,24.90
2022-08-05T23:17:34.555Z,25.02
2022-08-05T23:20:16.410Z,25.18
2022-08-05T23:22:47.215Z,24.03
2022-08-05T23:25:17.008Z,25.10
2022-08-05T23:28:07.554Z,24.84
2022-08-05T23:30:40.499Z,24.85
2022-08-05T23:33:22.554Z,23.98
2022-08-05T23:35:56.414Z,24.77
2022-08-05T23:38:26.725Z,24.27
2022-08-05T23:40:54.971Z,24.56
2022-08-05T23:44:04.614Z,23.82
2022-08-05T23:46:19.971Z,24.66
2022-08-05T23:49:00.746Z,24.20
2022-08-05T23:51:53.309Z,24.64
2022-08-05T23:54:25.595Z,24.34
2022-08-05T23:57:03.184Z,24.51
